Flight Track Log - Related Links

Times and Time Zones

All times are in EDT time to prevent confusion due to time zone crossing. See the CHQ4720 flight status page for this flight to view local times or setup timezone preferences in your user account.

Time Position Orientation Groundspeed Altitude Reporting Facility
EDT Latitude Longitude Course Direction KTS MPH feet Rate Location/Type
Fri 02:27:06 PM 42.3667 -70.9667 300° West 160 184 700  Level KA90
Fri 02:28:06 PM 42.3667 -70.9000 90° East 185 213 2,500 1,983 Climbing KA90
Fri 02:29:07 PM 42.3833 -70.8333 71° East 215 247 4,700 2,098 Climbing KA90
Fri 02:30:09 PM 42.4333 -70.7667 45° Northeast 228 262 6,800 1,773 Climbing KA90
Fri 02:31:00 PM 42.6396 -70.9483 300° West  Level FlightAware Approximate
Fri 02:32:00 PM 42.6841 -71.0551 300° West  Level FlightAware Approximate
Fri 02:32:03 PM 42.5286 -70.8314 333° Northwest 237 273 9,900  Level Boston Center
Fri 02:33:03 PM 42.5756 -70.9092 309° West 228 262 12,100 1,950 Climbing Boston Center
Fri 02:34:03 PM 42.6097 -70.9703 307° West 233 268 13,800 1,800 Climbing Boston Center
Fri 02:35:03 PM 42.6544 -71.0483 308° West 238 274 15,700 1,650 Climbing Boston Center
Fri 02:36:03 PM 42.6928 -71.1181 307° West 245 282 17,100 1,600 Climbing Boston Center
Fri 02:37:03 PM 42.7397 -71.2019 307° West 250 288 18,900 1,600 Climbing Boston Center
Fri 02:38:03 PM 42.7822 -71.2803 306° West 255 293 20,300 1,400 Climbing Boston Center
Fri 02:39:03 PM 42.7933 -71.3706 280° West 255 293 21,700 1,550 Climbing Boston Center
Fri 02:40:03 PM 42.8028 -71.4694 277° West 260 299 23,400 1,500 Climbing Boston Center
Fri 02:41:03 PM 42.8097 -71.5656 276° West 266 306 24,700 800 Climbing Boston Center
Fri 02:42:03 PM 42.8208 -71.6731 278° West 277 319 25,000 136 Climbing Boston Center
Fri 02:43:15 PM 42.8319 -71.7833 278° West 293 337 25,000  Level Boston Center
Fri 02:44:15 PM 42.8453 -71.9106 278° West 293 337 25,000 50 Level Boston Center
Fri 02:45:15 PM 42.8519 -72.0153 275° West 288 331 25,100 600 Climbing Boston Center
Fri 02:46:15 PM 42.8625 -72.1144 278° West 277 319 26,200 1,050 Climbing Boston Center
Fri 02:47:15 PM 42.8711 -72.2192 276° West 277 319 27,200 1,050 Climbing Boston Center
Fri 02:48:15 PM 42.8900 -72.3267 284° West 277 319 28,300 1,050 Climbing Boston Center
Fri 02:49:15 PM 42.8964 -72.4317 275° West 277 319 29,300 1,050 Climbing Boston Center
Fri 02:50:15 PM 42.9067 -72.5364 278° West 277 319 30,400 1,100 Climbing Boston Center
Fri 02:51:15 PM 42.9086 -72.6497 271° West 277 319 31,500 1,050 Climbing Boston Center
Fri 02:52:15 PM 42.9169 -72.7492 277° West 271 312 32,500 800 Climbing Boston Center
Fri 02:53:15 PM 42.9247 -72.8569 276° West 276 318 33,100 650 Climbing Boston Center
Fri 02:54:15 PM 42.9347 -72.9675 277° West 287 330 33,800 450 Climbing Boston Center
Fri 02:55:15 PM 42.9467 -73.0725 279° West 299 344 34,000 250 Climbing Boston Center
Fri 02:56:15 PM 42.9564 -73.1892 277° West 309 356 34,300 500 Climbing Boston Center
Fri 02:57:15 PM 42.9661 -73.3056 277° West 314 361 35,000 350 Climbing Boston Center
Fri 02:58:15 PM 42.9733 -73.4361 274° West 314 361 35,000  Level Boston Center
Fri 02:59:15 PM 42.9828 -73.5556 276° West 314 361 35,000  Level Boston Center
Fri 03:00:27 PM 42.9919 -73.6664 276° West 309 356 35,000  Level Boston Center
Fri 03:01:27 PM 43.0008 -73.7942 275° West 303 349 35,000  Level Boston Center
Fri 03:02:27 PM 43.0081 -73.8967 276° West 286 329 35,000  Level Boston Center
Fri 03:03:27 PM 43.0169 -74.0047 276° West 286 329 35,000  Level Boston Center
Fri 03:04:27 PM 43.0236 -74.1242 274° West 300 345 35,000  Level Boston Center
Fri 03:05:27 PM 43.0325 -74.2239 277° West 316 364 35,000  Level Boston Center
Fri 03:06:27 PM 43.0447 -74.3719 276° West 329 379 35,000  Level Boston Center
Fri 03:07:27 PM 43.0531 -74.4917 275° West 329 379 35,000  Level Boston Center
Fri 03:08:27 PM 43.0592 -74.6028 274° West 317 365 35,000  Level Boston Center
Fri 03:09:39 PM 43.0675 -74.7139 276° West 311 358 35,000  Level Boston Center
Fri 03:10:39 PM 43.0772 -74.8506 276° West 306 352 35,000  Level Boston Center
Fri 03:11:39 PM 43.0831 -74.9644 274° West 311 358 35,000  Level Boston Center
Fri 03:12:39 PM 43.0908 -75.0872 275° West 316 364 35,000  Level Boston Center
Fri 03:13:39 PM 43.1003 -75.2100 276° West 321 369 35,000  Level Boston Center
Fri 03:14:39 PM 43.1097 -75.3356 276° West 327 376 35,000  Level Boston Center
Fri 03:15:39 PM 43.1169 -75.4608 275° West 332 382 35,000 -273 Level Boston Center
Fri 03:16:51 PM 43.1239 -75.5867 274° West 332 382 34,400 -1,045 Descending Boston Center
Fri 03:17:51 PM 43.1322 -75.7378 274° West 332 382 32,700 -883 Descending Boston Center
Fri 03:19:34 PM 43.1439 -75.9275 275° West 318 366 32,000 -258 Descending Cleveland Center
Fri 03:20:34 PM 43.1508 -76.0494 275° West 318 366 32,000  Level Cleveland Center
Fri 03:21:34 PM 43.1558 -76.1744 273° West 324 373 32,000  Level Cleveland Center
Fri 03:22:34 PM 43.1331 -76.2956 256° West 330 380 32,000  Level Cleveland Center
Fri 03:23:34 PM 43.0975 -76.4061 246° West 330 380 32,000  Level Cleveland Center
Fri 03:24:34 PM 43.0600 -76.5222 246° West 330 380 32,000  Level Cleveland Center
Fri 03:25:34 PM 43.0225 -76.6411 247° West 336 387 32,000  Level Cleveland Center
Fri 03:26:34 PM 42.9789 -76.7744 246° West 342 394 32,000  Level Cleveland Center
Fri 03:27:34 PM 42.9411 -76.8931 247° West 347 399 32,000  Level Cleveland Center
Fri 03:28:34 PM 42.9031 -77.0089 246° West 347 399 32,000  Level Cleveland Center
Fri 03:29:34 PM 42.8606 -77.1217 243° Southwest 342 394 32,000  Level Cleveland Center
Fri 03:30:34 PM 42.8139 -77.2319 240° Southwest 342 394 32,000  Level Cleveland Center
Fri 03:31:34 PM 42.7650 -77.3447 239° Southwest 342 394 32,000  Level Cleveland Center
Fri 03:32:34 PM 42.7200 -77.4517 240° Southwest 342 394 32,000  Level Cleveland Center
Fri 03:33:34 PM 42.6767 -77.5500 239° Southwest 342 394 32,000  Level Cleveland Center
Fri 03:34:34 PM 42.6297 -77.6653 241° Southwest 342 394 32,000  Level Cleveland Center
Fri 03:35:34 PM 42.5783 -77.7747 238° Southwest 342 394 32,000  Level Cleveland Center
Fri 03:36:34 PM 42.5308 -77.8894 241° Southwest 348 400 32,000  Level Cleveland Center
Fri 03:37:34 PM 42.4814 -78.0014 239° Southwest 348 400 32,000  Level Cleveland Center
Fri 03:38:34 PM 42.4339 -78.1131 240° Southwest 348 400 32,000  Level Cleveland Center
Fri 03:39:34 PM 42.3881 -78.2217 240° Southwest 342 394 32,000  Level Cleveland Center
Fri 03:40:34 PM 42.3383 -78.3331 239° Southwest 342 394 32,000  Level Cleveland Center
Fri 03:41:34 PM 42.2903 -78.4386 238° Southwest 342 394 32,000  Level Cleveland Center
Fri 03:42:34 PM 42.2442 -78.5442 239° Southwest 342 394 32,000  Level Cleveland Center
Fri 03:43:34 PM 42.1961 -78.6522 239° Southwest 342 394 32,000  Level Cleveland Center
Fri 03:44:34 PM 42.1478 -78.7572 238° Southwest 342 394 32,000  Level Cleveland Center
Fri 03:45:34 PM 42.1014 -78.8650 240° Southwest 342 394 32,000 -50 Level Cleveland Center
Fri 03:46:34 PM 42.0528 -78.9669 237° Southwest 342 394 31,900 -750 Descending Cleveland Center
Fri 03:47:34 PM 42.0083 -79.0714 240° Southwest 337 388 30,500 -1,400 Descending Cleveland Center
Fri 03:48:34 PM 41.9597 -79.1731 237° Southwest 337 388 29,100 -750 Descending Cleveland Center
Fri 03:49:34 PM 41.9169 -79.2717 240° Southwest 330 380 29,000 -50 Descending Cleveland Center
Fri 03:50:34 PM 41.8722 -79.3647 237° Southwest 313 360 29,000  Level Cleveland Center
Fri 03:51:34 PM 41.8294 -79.4628 240° Southwest 290 334 29,000 -350 Level Cleveland Center
Fri 03:52:34 PM 41.7886 -79.5500 238° Southwest 284 327 28,300 -800 Descending Cleveland Center
Fri 03:53:34 PM 41.7456 -79.6397 237° Southwest 299 344 27,400 -900 Descending Cleveland Center
Fri 03:54:34 PM 41.6903 -79.7600 238° Southwest 331 381 26,500 -950 Descending Cleveland Center
Fri 03:55:34 PM 41.6408 -79.8719 239° Southwest 349 402 25,500 -1,200 Descending Cleveland Center
Fri 03:56:34 PM 41.6061 -79.9694 245° Southwest 361 415 24,100 -1,900 Descending Cleveland Center
Fri 03:57:34 PM 41.5922 -80.1139 263° West 353 406 21,700 -2,250 Descending Cleveland Center
Fri 03:58:34 PM 41.5842 -80.2417 265° West 339 390 19,600 -2,200 Descending Cleveland Center
Fri 03:59:34 PM 41.5742 -80.3750 264° West 350 403 17,300 -2,200 Descending Cleveland Center
Fri 04:00:34 PM 41.5658 -80.4917 265° West 350 403 15,200 -2,100 Descending Cleveland Center
Fri 04:01:34 PM 41.5536 -80.6025 262° West 319 367 13,100 -2,000 Descending Cleveland Center
Fri 04:02:34 PM 41.5472 -80.7164 266° West 307 353 11,200 -1,593 Descending Cleveland Center
Fri 04:03:27 PM 41.5408 -80.8133 265° West 312 359 10,100 -867 Descending Cleveland Center
Fri 04:03:57 PM 41.5344 -80.8717 262° West 302 348 10,000 -90 Descending Cleveland Center
Fri 04:04:34 PM 41.5322 -80.9242 267° West 307 353 10,000  Level Cleveland Center
Fri 04:05:04 PM 41.5278 -80.9825 264° West 278 320 10,000  Level Cleveland Center
Fri 04:05:34 PM 41.5422 -81.0269 293° West 285 328 10,000  Level Cleveland Center
Fri 04:05:58 PM 41.5586 -81.0800 292° West 331 381 10,000  Level Cleveland Center
Fri 04:06:34 PM 41.5750 -81.1356 292° West 296 341 10,000  Level Cleveland Center
Fri 04:06:59 PM 41.5894 -81.1856 291° West 301 346 10,000  Level Cleveland Center
Fri 04:07:34 PM 41.6036 -81.2386 290° West 308 354 10,000 -197 Level Cleveland Center
Fri 04:08:00 PM 41.6283 -81.2886 303° West 290 334 9,800 -900 Descending Cleveland Center
Fri 04:08:34 PM 41.6492 -81.3194 312° West 282 325 9,100 -1,418 Descending Cleveland Center
Fri 04:08:55 PM 41.6656 -81.3558 301° West 255 293 8,500 -1,300 Descending Cleveland Center
Fri 04:09:34 PM 41.6883 -81.3922 310° West 252 290 7,800 -1,200 Descending Cleveland Center
Fri 04:09:55 PM 41.7067 -81.4203 311° West 183 211 7,300 -800 Descending Cleveland Center
Fri 04:10:34 PM 41.6942 -81.4453 236° Southwest 169 194 7,000 -295 Descending Cleveland Center
Fri 04:10:56 PM 41.6689 -81.4531 193° South 178 205 7,000  Level Cleveland Center
Fri 04:11:34 PM 41.6500 -81.4722 217° Southwest 131 151 7,000 -627 Level Cleveland Center
Fri 04:12:03 PM 41.6353 -81.5000 235° Southwest 175 201 6,300 -1,000 Descending Cleveland Center
Fri 04:12:34 PM 41.6164 -81.5275 227° Southwest 162 186 6,000 -327 Descending Cleveland Center
Fri 04:12:58 PM 41.6056 -81.5494 237° Southwest 176 203 6,000 -600 Level Cleveland Center
Fri 04:14:04 PM 41.5719 -81.5961 226° Southwest 158 182 5,100 -595 Descending Cleveland Center
Fri 04:14:59 PM 41.5486 -81.6347 231° Southwest 152 175 4,800 -639 Descending Cleveland Center
Fri 04:16:06 PM 41.5147 -81.6922 232° Southwest 179 206 3,800 -945 Descending Cleveland Center
Fri 04:17:06 PM 41.4831 -81.7417 229° Southwest 179 206 2,800 -945 Descending Cleveland Center
Fri 04:18:13 PM 41.4450 -81.7992 229° Southwest 156 180 1,800 -896 Descending Cleveland Center

Login

Don't have an account? Register now (free) for customized features, flight alerts, and more!